BER211 EDXW-EDDB
Flight info
| Callsign | BER211 |
|---|---|
| Flight time | 0h 45m |
| Altitude | 31000 |
| Route | OLDIP1A OLDIP DCT EKERN M852 AMLUH L619 VIBIS T209 OGBER |
| Aircraft | A320/M-SDE3FGHIRWY/LB1 |
Departure
| Time | 2026-04-12 09:54 |
|---|---|
| Airport | Westerland Sylt Airport (EDXW) |
Arrival
| Time | 2026-04-12 10:39 |
|---|---|
| Airport | Berlin Brandenburg Airport (EDDB) |
| Time | Latitude | Longitude | Altitude | Speed | Heading |
|---|---|---|---|---|---|
| 2026-04-12 09:37 | 54.91386 | 8.33122 | 30 ft | 0 kts | 91° |
| 2026-04-12 09:50 | 54.91386 | 8.33150 | 30 ft | 9 kts | 91° |
| 2026-04-12 09:51 | 54.91413 | 8.33228 | 32 ft | 8 kts | 10° |
| 2026-04-12 09:51 | 54.91471 | 8.33189 | 33 ft | 10 kts | 338° |
| 2026-04-12 09:51 | 54.91556 | 8.33178 | 36 ft | 15 kts | 360° |
| 2026-04-12 09:51 | 54.91688 | 8.33176 | 39 ft | 22 kts | 1° |
| 2026-04-12 09:52 | 54.91818 | 8.33197 | 40 ft | 0 kts | 18° |
| 2026-04-12 09:52 | 54.91851 | 8.33217 | 42 ft | 16 kts | 20° |
| 2026-04-12 09:53 | 54.91906 | 8.33319 | 42 ft | 6 kts | 131° |
| 2026-04-12 09:53 | 54.91877 | 8.33364 | 42 ft | 0 kts | 143° |
| 2026-04-12 09:53 | 54.91870 | 8.33373 | 42 ft | 13 kts | 143° |
| 2026-04-12 09:53 | 54.91572 | 8.33738 | 45 ft | 89 kts | 144° |
| 2026-04-12 09:54 | 54.90902 | 8.34562 | 49 ft | 143 kts | 152° |
| 2026-04-12 09:54 | 54.90029 | 8.35660 | 389 ft | 162 kts | 148° |
| 2026-04-12 09:54 | 54.89091 | 8.36856 | 973 ft | 174 kts | 147° |
| 2026-04-12 09:54 | 54.88074 | 8.38155 | 1513 ft | 189 kts | 148° |
| 2026-04-12 09:55 | 54.86954 | 8.39594 | 2019 ft | 213 kts | 147° |
| 2026-04-12 09:55 | 54.85701 | 8.41211 | 2597 ft | 232 kts | 146° |
| 2026-04-12 09:55 | 54.84383 | 8.42921 | 3237 ft | 247 kts | 147° |
| 2026-04-12 09:55 | 54.82943 | 8.44665 | 4004 ft | 255 kts | 148° |
| 2026-04-12 09:56 | 54.81460 | 8.46414 | 4881 ft | 259 kts | 148° |
| 2026-04-12 09:56 | 54.79955 | 8.48199 | 5758 ft | 262 kts | 148° |
| 2026-04-12 09:56 | 54.78454 | 8.49990 | 6597 ft | 266 kts | 148° |
| 2026-04-12 09:56 | 54.76918 | 8.51839 | 7393 ft | 270 kts | 148° |
| 2026-04-12 09:57 | 54.75365 | 8.53724 | 8206 ft | 274 kts | 148° |
| 2026-04-12 09:57 | 54.73816 | 8.55612 | 8995 ft | 278 kts | 148° |
| 2026-04-12 09:57 | 54.72228 | 8.57558 | 9797 ft | 282 kts | 148° |
| 2026-04-12 09:57 | 54.70618 | 8.59531 | 10549 ft | 285 kts | 148° |
| 2026-04-12 09:58 | 54.68984 | 8.61532 | 11274 ft | 288 kts | 149° |
| 2026-04-12 09:58 | 54.67352 | 8.63528 | 12007 ft | 291 kts | 149° |
| 2026-04-12 09:58 | 54.65688 | 8.65554 | 12730 ft | 294 kts | 150° |
| 2026-04-12 09:58 | 54.64016 | 8.67622 | 13464 ft | 299 kts | 146° |
| 2026-04-12 09:59 | 54.62560 | 8.70257 | 14125 ft | 311 kts | 130° |
| 2026-04-12 09:59 | 54.61523 | 8.73646 | 14468 ft | 334 kts | 114° |
| 2026-04-12 09:59 | 54.61018 | 8.77753 | 14602 ft | 360 kts | 103° |
| 2026-04-12 09:59 | 54.60628 | 8.82142 | 14826 ft | 376 kts | 103° |
| 2026-04-12 10:00 | 54.60228 | 8.86647 | 15350 ft | 382 kts | 103° |
| 2026-04-12 10:00 | 54.59824 | 8.91152 | 15929 ft | 386 kts | 104° |
| 2026-04-12 10:00 | 54.59404 | 8.95739 | 16527 ft | 389 kts | 104° |
| 2026-04-12 10:00 | 54.58972 | 9.00360 | 17116 ft | 392 kts | 105° |
| 2026-04-12 10:01 | 54.58531 | 9.05016 | 17704 ft | 395 kts | 105° |
| 2026-04-12 10:01 | 54.58082 | 9.09725 | 18294 ft | 399 kts | 106° |
| 2026-04-12 10:01 | 54.57630 | 9.14465 | 18789 ft | 402 kts | 106° |
| 2026-04-12 10:01 | 54.57176 | 9.19245 | 19234 ft | 406 kts | 105° |
| 2026-04-12 10:02 | 54.56716 | 9.24086 | 19717 ft | 410 kts | 105° |
| 2026-04-12 10:02 | 54.56250 | 9.28986 | 20184 ft | 415 kts | 105° |
| 2026-04-12 10:02 | 54.55783 | 9.33857 | 20641 ft | 419 kts | 105° |
| 2026-04-12 10:02 | 54.55302 | 9.38837 | 21102 ft | 424 kts | 105° |
| 2026-04-12 10:03 | 54.54815 | 9.43866 | 21557 ft | 428 kts | 105° |
| 2026-04-12 10:03 | 54.54318 | 9.48965 | 22002 ft | 432 kts | 106° |
| 2026-04-12 10:03 | 54.53982 | 9.52371 | 22296 ft | 435 kts | 106° |
| 2026-04-12 10:03 | 54.53468 | 9.57539 | 22726 ft | 439 kts | 106° |
| 2026-04-12 10:04 | 54.52945 | 9.62770 | 23150 ft | 444 kts | 106° |
| 2026-04-12 10:04 | 54.52418 | 9.68031 | 23567 ft | 448 kts | 106° |
| 2026-04-12 10:04 | 54.51697 | 9.73163 | 23835 ft | 445 kts | 116° |
| 2026-04-12 10:04 | 54.50417 | 9.77981 | 24150 ft | 438 kts | 128° |
| 2026-04-12 10:05 | 54.48650 | 9.82195 | 24480 ft | 429 kts | 140° |
| 2026-04-12 10:05 | 54.46528 | 9.85642 | 24826 ft | 420 kts | 151° |
| 2026-04-12 10:05 | 54.44092 | 9.88336 | 25164 ft | 411 kts | 162° |
| 2026-04-12 10:05 | 54.41485 | 9.90185 | 25504 ft | 402 kts | 172° |
| 2026-04-12 10:06 | 54.38794 | 9.91368 | 25849 ft | 400 kts | 175° |
| 2026-04-12 10:06 | 54.36080 | 9.92499 | 26195 ft | 402 kts | 175° |
| 2026-04-12 10:06 | 54.33360 | 9.93637 | 26527 ft | 403 kts | 176° |
| 2026-04-12 10:06 | 54.30624 | 9.94787 | 26880 ft | 405 kts | 176° |
| 2026-04-12 10:07 | 54.27882 | 9.95942 | 27214 ft | 406 kts | 176° |
| 2026-04-12 10:07 | 54.25124 | 9.97102 | 27543 ft | 408 kts | 176° |
| 2026-04-12 10:07 | 54.22354 | 9.98265 | 27859 ft | 410 kts | 176° |
| 2026-04-12 10:07 | 54.19582 | 9.99422 | 28171 ft | 411 kts | 176° |
| 2026-04-12 10:08 | 54.16828 | 10.00567 | 28474 ft | 413 kts | 176° |
| 2026-04-12 10:08 | 54.14032 | 10.01731 | 28755 ft | 414 kts | 177° |
| 2026-04-12 10:08 | 54.11228 | 10.02899 | 29041 ft | 416 kts | 177° |
| 2026-04-12 10:08 | 54.08404 | 10.04076 | 29315 ft | 418 kts | 177° |
| 2026-04-12 10:09 | 54.05561 | 10.05261 | 29579 ft | 419 kts | 177° |
| 2026-04-12 10:09 | 54.02721 | 10.06446 | 29844 ft | 420 kts | 177° |
| 2026-04-12 10:09 | 53.99873 | 10.07628 | 30094 ft | 422 kts | 177° |
| 2026-04-12 10:09 | 53.97016 | 10.08809 | 30302 ft | 423 kts | 177° |
| 2026-04-12 10:10 | 53.94153 | 10.09992 | 30521 ft | 424 kts | 177° |
| 2026-04-12 10:10 | 53.91318 | 10.11165 | 30792 ft | 423 kts | 177° |
| 2026-04-12 10:10 | 53.88453 | 10.12344 | 30994 ft | 423 kts | 177° |
| 2026-04-12 10:11 | 53.82834 | 10.14676 | 31049 ft | 409 kts | 178° |
| 2026-04-12 10:11 | 53.77350 | 10.16931 | 31054 ft | 406 kts | 178° |
| 2026-04-12 10:12 | 53.71862 | 10.19158 | 31057 ft | 406 kts | 178° |
| 2026-04-12 10:12 | 53.66363 | 10.21422 | 31058 ft | 407 kts | 177° |
| 2026-04-12 10:13 | 53.60892 | 10.23925 | 31054 ft | 409 kts | 176° |
| 2026-04-12 10:13 | 53.55433 | 10.26501 | 31033 ft | 408 kts | 176° |
| 2026-04-12 10:14 | 53.49942 | 10.29046 | 31032 ft | 408 kts | 176° |
| 2026-04-12 10:14 | 53.44595 | 10.32814 | 31020 ft | 436 kts | 157° |
| 2026-04-12 10:14 | 53.42252 | 10.36120 | 30990 ft | 455 kts | 143° |
| 2026-04-12 10:15 | 53.40307 | 10.40437 | 30999 ft | 474 kts | 129° |
| 2026-04-12 10:15 | 53.37195 | 10.50332 | 31006 ft | 480 kts | 127° |
| 2026-04-12 10:16 | 53.34062 | 10.60242 | 31011 ft | 481 kts | 127° |
| 2026-04-12 10:16 | 53.30922 | 10.70061 | 31011 ft | 482 kts | 127° |
| 2026-04-12 10:17 | 53.27755 | 10.79955 | 31015 ft | 482 kts | 127° |
| 2026-04-12 10:17 | 53.24559 | 10.89884 | 31039 ft | 485 kts | 126° |
| 2026-04-12 10:18 | 53.21379 | 10.99742 | 31036 ft | 485 kts | 126° |
| 2026-04-12 10:18 | 53.18164 | 11.09671 | 31041 ft | 484 kts | 127° |
| 2026-04-12 10:19 | 53.14955 | 11.19549 | 31040 ft | 484 kts | 127° |
| 2026-04-12 10:19 | 53.11761 | 11.29339 | 31012 ft | 484 kts | 126° |
| 2026-04-12 10:20 | 53.08536 | 11.39189 | 31015 ft | 484 kts | 126° |
| 2026-04-12 10:20 | 53.05298 | 11.49032 | 30973 ft | 483 kts | 126° |
| 2026-04-12 10:20 | 53.03774 | 11.53934 | 30465 ft | 485 kts | 120° |
| 2026-04-12 10:21 | 53.02675 | 11.59265 | 29889 ft | 489 kts | 111° |
| 2026-04-12 10:21 | 53.01773 | 11.64703 | 29281 ft | 485 kts | 111° |
| 2026-04-12 10:21 | 53.00663 | 11.69905 | 28727 ft | 473 kts | 120° |
| 2026-04-12 10:21 | 52.99384 | 11.74918 | 28140 ft | 469 kts | 120° |
| 2026-04-12 10:22 | 52.98119 | 11.79877 | 27608 ft | 465 kts | 119° |
| 2026-04-12 10:22 | 52.96861 | 11.84796 | 27073 ft | 461 kts | 119° |
| 2026-04-12 10:22 | 52.95616 | 11.89643 | 26561 ft | 457 kts | 119° |
| 2026-04-12 10:22 | 52.94368 | 11.94483 | 26063 ft | 454 kts | 119° |
| 2026-04-12 10:23 | 52.93133 | 11.99268 | 25488 ft | 448 kts | 120° |
| 2026-04-12 10:23 | 52.91908 | 12.03999 | 24633 ft | 443 kts | 120° |
| 2026-04-12 10:23 | 52.90706 | 12.08624 | 23836 ft | 438 kts | 120° |
| 2026-04-12 10:23 | 52.89358 | 12.13086 | 22976 ft | 423 kts | 131° |
| 2026-04-12 10:24 | 52.87516 | 12.16718 | 22182 ft | 404 kts | 142° |
| 2026-04-12 10:24 | 52.85544 | 12.19979 | 21363 ft | 397 kts | 141° |
| 2026-04-12 10:24 | 52.83594 | 12.23194 | 20550 ft | 392 kts | 141° |
| 2026-04-12 10:24 | 52.81697 | 12.26303 | 19831 ft | 385 kts | 140° |
| 2026-04-12 10:25 | 52.79805 | 12.29393 | 19124 ft | 378 kts | 140° |
| 2026-04-12 10:25 | 52.77949 | 12.32420 | 18430 ft | 371 kts | 139° |
| 2026-04-12 10:25 | 52.76119 | 12.35402 | 17649 ft | 365 kts | 139° |
| 2026-04-12 10:25 | 52.74325 | 12.38323 | 16865 ft | 359 kts | 139° |
| 2026-04-12 10:26 | 52.72581 | 12.41164 | 16111 ft | 354 kts | 140° |
| 2026-04-12 10:26 | 52.70842 | 12.43991 | 15374 ft | 349 kts | 140° |
| 2026-04-12 10:26 | 52.69122 | 12.46781 | 14664 ft | 344 kts | 140° |
| 2026-04-12 10:26 | 52.67428 | 12.49525 | 13969 ft | 339 kts | 140° |
| 2026-04-12 10:27 | 52.65756 | 12.52231 | 13179 ft | 335 kts | 140° |
| 2026-04-12 10:27 | 52.64104 | 12.54902 | 12383 ft | 331 kts | 140° |
| 2026-04-12 10:27 | 52.62462 | 12.57552 | 11589 ft | 328 kts | 139° |
| 2026-04-12 10:27 | 52.60844 | 12.60165 | 10811 ft | 324 kts | 139° |
| 2026-04-12 10:28 | 52.59240 | 12.62756 | 10256 ft | 322 kts | 138° |
| 2026-04-12 10:28 | 52.57650 | 12.65321 | 10095 ft | 324 kts | 138° |
| 2026-04-12 10:28 | 52.56065 | 12.67874 | 10049 ft | 310 kts | 138° |
| 2026-04-12 10:28 | 52.54562 | 12.70298 | 10062 ft | 296 kts | 138° |
| 2026-04-12 10:29 | 52.53109 | 12.72635 | 9835 ft | 291 kts | 139° |
| 2026-04-12 10:29 | 52.51665 | 12.74947 | 9543 ft | 288 kts | 139° |
| 2026-04-12 10:29 | 52.50231 | 12.77238 | 9219 ft | 286 kts | 139° |
| 2026-04-12 10:29 | 52.48829 | 12.79483 | 8884 ft | 283 kts | 139° |
| 2026-04-12 10:30 | 52.47420 | 12.81732 | 8519 ft | 280 kts | 139° |
| 2026-04-12 10:30 | 52.46027 | 12.83956 | 8161 ft | 278 kts | 138° |
| 2026-04-12 10:30 | 52.44655 | 12.86145 | 7664 ft | 273 kts | 138° |
| 2026-04-12 10:30 | 52.43302 | 12.88304 | 7058 ft | 269 kts | 138° |
| 2026-04-12 10:31 | 52.41969 | 12.90427 | 6452 ft | 265 kts | 138° |
| 2026-04-12 10:31 | 52.40658 | 12.92518 | 5814 ft | 261 kts | 138° |
| 2026-04-12 10:31 | 52.39374 | 12.94564 | 5178 ft | 258 kts | 138° |
| 2026-04-12 10:31 | 52.38088 | 12.96609 | 4524 ft | 255 kts | 138° |
| 2026-04-12 10:32 | 52.36819 | 12.98624 | 3858 ft | 253 kts | 137° |
| 2026-04-12 10:32 | 52.35564 | 13.00619 | 3242 ft | 249 kts | 137° |
| 2026-04-12 10:32 | 52.34342 | 13.02557 | 3016 ft | 247 kts | 137° |
| 2026-04-12 10:32 | 52.33099 | 13.04525 | 2992 ft | 249 kts | 137° |
| 2026-04-12 10:33 | 52.31845 | 13.06507 | 2998 ft | 250 kts | 137° |
| 2026-04-12 10:33 | 52.30633 | 13.08425 | 2987 ft | 233 kts | 137° |
| 2026-04-12 10:33 | 52.29511 | 13.10203 | 2992 ft | 221 kts | 137° |
| 2026-04-12 10:33 | 52.28434 | 13.11982 | 2994 ft | 220 kts | 130° |
| 2026-04-12 10:34 | 52.27711 | 13.14152 | 3003 ft | 222 kts | 109° |
| 2026-04-12 10:34 | 52.27515 | 13.16662 | 3004 ft | 225 kts | 88° |
| 2026-04-12 10:34 | 52.27897 | 13.19155 | 3007 ft | 230 kts | 71° |
| 2026-04-12 10:34 | 52.28484 | 13.21571 | 3005 ft | 225 kts | 71° |
| 2026-04-12 10:35 | 52.29046 | 13.23888 | 3004 ft | 215 kts | 71° |
| 2026-04-12 10:35 | 52.29590 | 13.26145 | 2900 ft | 213 kts | 71° |
| 2026-04-12 10:35 | 52.30126 | 13.28375 | 2618 ft | 206 kts | 71° |
| 2026-04-12 10:35 | 52.30631 | 13.30478 | 2376 ft | 195 kts | 71° |
| 2026-04-12 10:36 | 52.31114 | 13.32493 | 2102 ft | 183 kts | 71° |
| 2026-04-12 10:36 | 52.31557 | 13.34336 | 1881 ft | 163 kts | 71° |
| 2026-04-12 10:36 | 52.31953 | 13.35993 | 1647 ft | 151 kts | 72° |
| 2026-04-12 10:36 | 52.32325 | 13.37551 | 1442 ft | 147 kts | 72° |
| 2026-04-12 10:37 | 52.32694 | 13.39095 | 1236 ft | 145 kts | 71° |
| 2026-04-12 10:37 | 52.33057 | 13.40615 | 1022 ft | 143 kts | 72° |
| 2026-04-12 10:37 | 52.33436 | 13.42110 | 758 ft | 141 kts | 70° |
| 2026-04-12 10:37 | 52.33765 | 13.43626 | 590 ft | 142 kts | 75° |
| 2026-04-12 10:38 | 52.34154 | 13.45132 | 383 ft | 145 kts | 71° |
| 2026-04-12 10:38 | 52.34506 | 13.46676 | 233 ft | 148 kts | 70° |
| 2026-04-12 10:38 | 52.34868 | 13.48163 | 159 ft | 128 kts | 70° |
| 2026-04-12 10:38 | 52.35133 | 13.49323 | 155 ft | 87 kts | 69° |
| 2026-04-12 10:39 | 52.35311 | 13.50082 | 153 ft | 59 kts | 69° |
| 2026-04-12 10:39 | 52.35508 | 13.50592 | 157 ft | 50 kts | 39° |
| 2026-04-12 10:39 | 52.35575 | 13.50680 | 158 ft | 0 kts | 38° |
| 2026-04-12 10:40 | 52.35579 | 13.50684 | 158 ft | 4 kts | 38° |
| 2026-04-12 10:40 | 52.35607 | 13.50720 | 158 ft | 0 kts | 38° |
| 2026-04-12 10:40 | 52.35634 | 13.50754 | 158 ft | 15 kts | 38° |
| 2026-04-12 10:41 | 52.35757 | 13.50827 | 158 ft | 12 kts | 352° |
| 2026-04-12 10:41 | 52.35787 | 13.50819 | 158 ft | 1 kts | 345° |
| 2026-04-12 10:41 | 52.35831 | 13.50793 | 158 ft | 12 kts | 334° |
| 2026-04-12 10:41 | 52.35850 | 13.50778 | 158 ft | 0 kts | 336° |
| 2026-04-12 10:42 | 52.35901 | 13.50741 | 158 ft | 21 kts | 336° |
| 2026-04-12 10:42 | 52.36045 | 13.50658 | 158 ft | 22 kts | 340° |
| 2026-04-12 10:42 | 52.36183 | 13.50570 | 158 ft | 21 kts | 338° |
| 2026-04-12 10:42 | 52.36286 | 13.50576 | 158 ft | 13 kts | 35° |
| 2026-04-12 10:43 | 52.36321 | 13.50661 | 161 ft | 0 kts | 65° |